CDT,Max TemperatureF,Mean TemperatureF,Min TemperatureF,Max Dew PointF,MeanDew PointF,Min DewpointF,Max Humidity, Mean Humidity, Min Humidity, Max Sea Level PressureIn, Mean Sea Level PressureIn, Min Sea Level PressureIn, Max VisibilityMiles, Mean VisibilityMiles, Min VisibilityMiles, Max Wind SpeedMPH, Mean Wind SpeedMPH, Max Gust SpeedMPH,PrecipitationIn, CloudCover, Events, WindDirDegrees
2013-10-1,77,67,57,52,43,32,82,47,19,29.99,29.88,29.72,10,10,4,20,11,26,0.00,0,,331
2013-10-2,82,66,50,63,49,36,78,53,35,30.00,29.92,29.82,10,10,8,22,9,29,0.00,1,,140
2013-10-3,73,66,60,63,60,59,100,86,61,29.84,29.81,29.77,10,9,4,16,7,22,0.10,4,Rain,41
2013-10-4,71,64,57,70,61,52,100,93,73,29.88,29.78,29.60,10,6,0,24,14,36,0.22,7,Fog-Rain,93
2013-10-5,55,47,39,52,36,32,88,68,47,29.84,29.79,29.73,10,10,10,23,15,32,0.00,4,,225
2013-10-6,48,44,39,48,43,37,100,94,76,29.94,29.79,29.73,10,8,1,22,9,33,0.00,6,Rain,305
2013-10-7,71,56,41,46,41,37,93,64,33,30.02,29.98,29.95,10,10,10,14,11,21,0.00,0,,250
2013-10-8,77,62,48,46,42,37,76,51,26,29.97,29.92,29.85,10,10,10,30,14,39,0.00,0,,187
2013-10-9,77,64,50,48,47,45,88,61,34,30.01,29.98,29.95,10,10,9,20,12,30,0.00,0,,165
2013-10-10,78,64,50,52,48,46,87,61,32,30.01,29.93,29.82,10,10,10,24,11,33,0.00,0,,159
2013-10-11,75,63,50,57,52,43,88,72,49,29.82,29.71,29.60,10,10,9,31,15,43,0.00,1,,174
2013-10-12,62,52,42,43,32,25,81,51,24,30.24,30.05,29.83,10,10,10,22,12,33,0.00,0,,277
2013-10-13,64,52,39,37,29,27,71,47,26,30.41,30.34,30.25,10,10,10,12,6,14,0.00,0,,105
2013-10-14,57,50,44,50,39,32,100,68,38,30.32,30.07,29.72,10,9,2,22,10,32,0.52,6,Rain,125
2013-10-15,55,48,42,55,45,41,100,93,87,29.95,29.80,29.68,10,8,2,23,17,32,0.00,8,Rain,261
2013-10-16,51,43,35,43,36,28,100,75,41,30.01,29.96,29.92,10,9,3,15,11,22,0.00,5,,297
2013-10-17,57,45,33,43,35,30,93,75,38,29.98,29.88,29.82,10,10,4,22,9,29,0.00,2,Rain,258
2013-10-18,50,41,32,36,30,23,93,68,35,30.06,29.99,29.92,10,10,10,14,10,21,0.00,3,,286
2013-10-19,53,42,32,37,33,30,100,74,41,29.91,29.82,29.76,10,10,7,20,9,28,0.00,6,,272
2013-10-20,59,48,37,39,35,28,81,67,45,29.96,29.76,29.66,10,10,8,30,12,37,0.00,6,,274
2013-10-21,48,39,30,34,28,23,93,67,37,30.03,29.98,29.91,10,10,9,21,9,26,0.00,6,,279
2013-10-22,41,37,33,39,32,27,100,83,61,30.07,29.97,29.87,10,8,1,16,9,21,0.02,8,Rain-Snow,351
2013-10-23,37,32,28,36,32,27,100,93,75,30.15,30.07,30.04,10,8,1,12,6,,0.03,6,Rain-Snow,296
2013-10-24,46,36,26,32,28,25,100,74,43,30.34,30.27,30.15,10,10,10,18,10,24,0.00,3,Rain,301
2013-10-25,57,42,26,34,29,21,86,63,41,30.35,30.17,29.95,10,10,10,29,11,41,0.00,1,,218
2013-10-26,48,40,32,36,28,25,87,63,40,30.17,30.09,29.94,10,10,9,22,12,26,0.00,0,,307
2013-10-27,64,45,26,36,30,23,86,60,32,30.08,29.92,29.79,10,10,10,21,11,28,0.00,0,,231
2013-10-28,46,40,33,36,33,32,93,75,57,30.26,30.19,30.00,10,10,5,25,19,32,0.01,1,Rain,61
2013-10-29,50,42,35,46,39,32,93,87,71,30.25,30.09,29.97,10,9,1,18,13,23,0.01,8,Rain,95
2013-10-30,62,52,41,57,49,41,100,98,77,29.97,29.84,29.72,10,2,0,18,7,25,0.04,8,Fog-Rain,177
2013-10-31,50,42,33,43,38,34,100,92,66,29.71,29.55,29.44,10,7,1,22,12,28,0.00,7,,291